sensor_id;sensor_type;location;lat;lon;timestamp;P1;durP1;ratioP1;P2;durP2;ratioP2
11681;SDS011;5897;42.640;23.310;2023-04-03T00:00:30;1.85;;;1.58;;
11681;SDS011;5897;42.640;23.310;2023-04-03T00:02:57;2.47;;;1.50;;
11681;SDS011;5897;42.640;23.310;2023-04-03T00:05:24;2.08;;;1.60;;
11681;SDS011;5897;42.640;23.310;2023-04-03T00:07:52;2.10;;;1.73;;
11681;SDS011;5897;42.640;23.310;2023-04-03T00:10:19;3.47;;;2.08;;
11681;SDS011;5897;42.640;23.310;2023-04-03T00:12:46;2.03;;;1.65;;
11681;SDS011;5897;42.640;23.310;2023-04-03T00:15:13;2.00;;;1.38;;
11681;SDS011;5897;42.640;23.310;2023-04-03T00:17:40;1.63;;;1.50;;
11681;SDS011;5897;42.640;23.310;2023-04-03T00:20:07;5.15;;;2.90;;
11681;SDS011;5897;42.640;23.310;2023-04-03T00:22:35;6.43;;;3.10;;
11681;SDS011;5897;42.640;23.310;2023-04-03T00:25:03;3.05;;;1.73;;
11681;SDS011;5897;42.640;23.310;2023-04-03T00:27:31;2.53;;;1.70;;
11681;SDS011;5897;42.640;23.310;2023-04-03T00:29:57;2.05;;;1.85;;
11681;SDS011;5897;42.640;23.310;2023-04-03T00:32:24;3.42;;;1.83;;
11681;SDS011;5897;42.640;23.310;2023-04-03T00:34:51;3.10;;;2.35;;
11681;SDS011;5897;42.640;23.310;2023-04-03T00:37:18;2.83;;;2.40;;
11681;SDS011;5897;42.640;23.310;2023-04-03T00:39:44;3.50;;;2.53;;
11681;SDS011;5897;42.640;23.310;2023-04-03T00:42:13;2.70;;;2.05;;
11681;SDS011;5897;42.640;23.310;2023-04-03T00:47:44;3.17;;;2.28;;
11681;SDS011;5897;42.640;23.310;2023-04-03T00:50:10;2.85;;;2.10;;
11681;SDS011;5897;42.640;23.310;2023-04-03T00:52:37;2.08;;;1.85;;
11681;SDS011;5897;42.640;23.310;2023-04-03T00:55:06;2.85;;;1.80;;
11681;SDS011;5897;42.640;23.310;2023-04-03T00:57:36;1.77;;;1.67;;
11681;SDS011;5897;42.640;23.310;2023-04-03T01:00:05;2.47;;;1.60;;
11681;SDS011;5897;42.640;23.310;2023-04-03T01:02:35;2.60;;;1.70;;
11681;SDS011;5897;42.640;23.310;2023-04-03T01:05:02;2.10;;;1.90;;
11681;SDS011;5897;42.640;23.310;2023-04-03T01:07:30;2.42;;;1.80;;
11681;SDS011;5897;42.640;23.310;2023-04-03T01:09:59;3.03;;;2.25;;
11681;SDS011;5897;42.640;23.310;2023-04-03T01:12:28;2.63;;;2.00;;
11681;SDS011;5897;42.640;23.310;2023-04-03T01:14:59;3.65;;;1.80;;
11681;SDS011;5897;42.640;23.310;2023-04-03T01:17:28;2.45;;;1.75;;
11681;SDS011;5897;42.640;23.310;2023-04-03T01:20:02;2.10;;;1.60;;
11681;SDS011;5897;42.640;23.310;2023-04-03T01:23:06;2.38;;;1.70;;
11681;SDS011;5897;42.640;23.310;2023-04-03T01:25:44;2.15;;;1.35;;
11681;SDS011;5897;42.640;23.310;2023-04-03T01:28:14;1.70;;;1.60;;
11681;SDS011;5897;42.640;23.310;2023-04-03T01:30:47;2.00;;;1.70;;
11681;SDS011;5897;42.640;23.310;2023-04-03T01:33:23;2.80;;;1.45;;
11681;SDS011;5897;42.640;23.310;2023-04-03T01:35:50;2.15;;;1.63;;
11681;SDS011;5897;42.640;23.310;2023-04-03T01:38:17;2.35;;;1.40;;
11681;SDS011;5897;42.640;23.310;2023-04-03T01:40:44;2.55;;;1.67;;
11681;SDS011;5897;42.640;23.310;2023-04-03T01:43:11;1.50;;;1.40;;
11681;SDS011;5897;42.640;23.310;2023-04-03T01:45:38;1.90;;;1.30;;
11681;SDS011;5897;42.640;23.310;2023-04-03T01:48:04;2.55;;;1.83;;
11681;SDS011;5897;42.640;23.310;2023-04-03T01:50:33;2.90;;;2.08;;
11681;SDS011;5897;42.640;23.310;2023-04-03T01:53:00;3.75;;;1.95;;
11681;SDS011;5897;42.640;23.310;2023-04-03T01:55:26;2.10;;;1.83;;
11681;SDS011;5897;42.640;23.310;2023-04-03T01:57:53;3.42;;;1.98;;
11681;SDS011;5897;42.640;23.310;2023-04-03T02:00:20;3.40;;;2.22;;
11681;SDS011;5897;42.640;23.310;2023-04-03T02:02:47;3.22;;;2.33;;
11681;SDS011;5897;42.640;23.310;2023-04-03T02:05:14;2.50;;;2.00;;
11681;SDS011;5897;42.640;23.310;2023-04-03T02:07:42;3.53;;;2.35;;
11681;SDS011;5897;42.640;23.310;2023-04-03T02:10:09;3.70;;;2.00;;
11681;SDS011;5897;42.640;23.310;2023-04-03T02:12:36;2.33;;;1.75;;
11681;SDS011;5897;42.640;23.310;2023-04-03T02:15:03;1.85;;;1.73;;
11681;SDS011;5897;42.640;23.310;2023-04-03T02:17:31;1.70;;;1.60;;
11681;SDS011;5897;42.640;23.310;2023-04-03T02:19:57;2.08;;;1.77;;
11681;SDS011;5897;42.640;23.310;2023-04-03T02:22:25;2.42;;;2.10;;
11681;SDS011;5897;42.640;23.310;2023-04-03T02:24:53;3.58;;;2.00;;
11681;SDS011;5897;42.640;23.310;2023-04-03T02:27:19;3.28;;;2.00;;
11681;SDS011;5897;42.640;23.310;2023-04-03T02:29:46;2.10;;;1.90;;
11681;SDS011;5897;42.640;23.310;2023-04-03T02:32:13;2.78;;;2.05;;
11681;SDS011;5897;42.640;23.310;2023-04-03T02:34:40;4.45;;;2.75;;
11681;SDS011;5897;42.640;23.310;2023-04-03T02:37:07;2.85;;;2.45;;
11681;SDS011;5897;42.640;23.310;2023-04-03T02:39:34;3.45;;;2.47;;
11681;SDS011;5897;42.640;23.310;2023-04-03T02:42:02;4.35;;;2.55;;
11681;SDS011;5897;42.640;23.310;2023-04-03T02:44:29;4.18;;;2.35;;
11681;SDS011;5897;42.640;23.310;2023-04-03T02:46:56;2.75;;;2.00;;
11681;SDS011;5897;42.640;23.310;2023-04-03T02:49:23;2.60;;;2.40;;
11681;SDS011;5897;42.640;23.310;2023-04-03T02:51:50;2.97;;;2.13;;
11681;SDS011;5897;42.640;23.310;2023-04-03T02:54:17;2.30;;;2.10;;
11681;SDS011;5897;42.640;23.310;2023-04-03T02:56:43;3.28;;;2.50;;
11681;SDS011;5897;42.640;23.310;2023-04-03T02:59:12;2.60;;;2.40;;
11681;SDS011;5897;42.640;23.310;2023-04-03T03:01:39;2.45;;;2.20;;
11681;SDS011;5897;42.640;23.310;2023-04-03T03:04:06;3.42;;;2.05;;
11681;SDS011;5897;42.640;23.310;2023-04-03T03:06:33;2.28;;;2.08;;
11681;SDS011;5897;42.640;23.310;2023-04-03T03:08:59;1.83;;;1.67;;
11681;SDS011;5897;42.640;23.310;2023-04-03T03:11:26;1.90;;;1.60;;
11681;SDS011;5897;42.640;23.310;2023-04-03T03:13:53;1.92;;;1.50;;
11681;SDS011;5897;42.640;23.310;2023-04-03T03:16:21;1.85;;;1.50;;
11681;SDS011;5897;42.640;23.310;2023-04-03T03:18:48;1.90;;;1.60;;
11681;SDS011;5897;42.640;23.310;2023-04-03T03:21:15;1.63;;;1.45;;
11681;SDS011;5897;42.640;23.310;2023-04-03T03:23:42;2.28;;;1.25;;
11681;SDS011;5897;42.640;23.310;2023-04-03T03:26:09;2.08;;;1.60;;
11681;SDS011;5897;42.640;23.310;2023-04-03T03:28:37;1.58;;;1.35;;
11681;SDS011;5897;42.640;23.310;2023-04-03T03:31:05;3.22;;;1.70;;
11681;SDS011;5897;42.640;23.310;2023-04-03T03:33:33;1.75;;;1.50;;
11681;SDS011;5897;42.640;23.310;2023-04-03T03:36:00;1.88;;;1.63;;
11681;SDS011;5897;42.640;23.310;2023-04-03T03:38:27;2.10;;;1.60;;
11681;SDS011;5897;42.640;23.310;2023-04-03T03:40:54;2.63;;;1.65;;
11681;SDS011;5897;42.640;23.310;2023-04-03T03:43:21;2.17;;;1.65;;
11681;SDS011;5897;42.640;23.310;2023-04-03T03:45:49;2.10;;;1.80;;
11681;SDS011;5897;42.640;23.310;2023-04-03T03:48:17;2.20;;;1.70;;
11681;SDS011;5897;42.640;23.310;2023-04-03T03:50:46;2.15;;;1.80;;
11681;SDS011;5897;42.640;23.310;2023-04-03T03:53:13;1.92;;;1.80;;
11681;SDS011;5897;42.640;23.310;2023-04-03T03:55:40;2.83;;;1.75;;
11681;SDS011;5897;42.640;23.310;2023-04-03T03:58:06;2.28;;;2.03;;
11681;SDS011;5897;42.640;23.310;2023-04-03T04:00:34;3.17;;;2.08;;
11681;SDS011;5897;42.640;23.310;2023-04-03T04:03:01;2.58;;;2.25;;
11681;SDS011;5897;42.640;23.310;2023-04-03T04:05:28;2.47;;;1.90;;
11681;SDS011;5897;42.640;23.310;2023-04-03T04:07:56;2.22;;;2.03;;
11681;SDS011;5897;42.640;23.310;2023-04-03T04:10:23;3.42;;;2.38;;
11681;SDS011;5897;42.640;23.310;2023-04-03T04:12:50;4.03;;;2.33;;
11681;SDS011;5897;42.640;23.310;2023-04-03T04:15:17;2.67;;;2.45;;
11681;SDS011;5897;42.640;23.310;2023-04-03T04:17:44;3.47;;;2.45;;
11681;SDS011;5897;42.640;23.310;2023-04-03T04:20:11;2.83;;;2.38;;
11681;SDS011;5897;42.640;23.310;2023-04-03T04:22:38;3.40;;;2.75;;
11681;SDS011;5897;42.640;23.310;2023-04-03T04:25:06;3.13;;;2.70;;
11681;SDS011;5897;42.640;23.310;2023-04-03T04:27:34;6.10;;;3.33;;
11681;SDS011;5897;42.640;23.310;2023-04-03T04:30:02;4.53;;;3.10;;
11681;SDS011;5897;42.640;23.310;2023-04-03T04:32:29;4.85;;;3.20;;
11681;SDS011;5897;42.640;23.310;2023-04-03T04:34:56;3.30;;;2.83;;
11681;SDS011;5897;42.640;23.310;2023-04-03T04:37:23;4.75;;;2.72;;
11681;SDS011;5897;42.640;23.310;2023-04-03T04:39:50;3.40;;;2.78;;
11681;SDS011;5897;42.640;23.310;2023-04-03T04:42:19;4.68;;;3.00;;
11681;SDS011;5897;42.640;23.310;2023-04-03T04:44:46;4.60;;;3.08;;
11681;SDS011;5897;42.640;23.310;2023-04-03T04:47:13;12.10;;;3.63;;
11681;SDS011;5897;42.640;23.310;2023-04-03T04:49:40;12.32;;;3.63;;
11681;SDS011;5897;42.640;23.310;2023-04-03T04:52:12;9.65;;;3.92;;
11681;SDS011;5897;42.640;23.310;2023-04-03T04:54:39;4.45;;;3.70;;
11681;SDS011;5897;42.640;23.310;2023-04-03T04:57:07;4.60;;;2.97;;
11681;SDS011;5897;42.640;23.310;2023-04-03T04:59:35;3.70;;;2.60;;
11681;SDS011;5897;42.640;23.310;2023-04-03T05:02:02;7.55;;;3.00;;
11681;SDS011;5897;42.640;23.310;2023-04-03T05:04:29;9.15;;;3.40;;
11681;SDS011;5897;42.640;23.310;2023-04-03T05:06:57;7.45;;;3.30;;
11681;SDS011;5897;42.640;23.310;2023-04-03T05:09:24;8.98;;;3.13;;
11681;SDS011;5897;42.640;23.310;2023-04-03T05:11:51;9.60;;;3.20;;
11681;SDS011;5897;42.640;23.310;2023-04-03T05:14:18;4.20;;;2.83;;
11681;SDS011;5897;42.640;23.310;2023-04-03T05:16:46;4.28;;;3.10;;
11681;SDS011;5897;42.640;23.310;2023-04-03T05:19:13;8.48;;;3.65;;
11681;SDS011;5897;42.640;23.310;2023-04-03T05:21:40;4.80;;;3.10;;
11681;SDS011;5897;42.640;23.310;2023-04-03T05:24:07;5.15;;;3.33;;
11681;SDS011;5897;42.640;23.310;2023-04-03T05:26:34;5.10;;;3.10;;
11681;SDS011;5897;42.640;23.310;2023-04-03T05:29:01;12.32;;;4.65;;
11681;SDS011;5897;42.640;23.310;2023-04-03T05:31:28;14.00;;;6.50;;
11681;SDS011;5897;42.640;23.310;2023-04-03T05:33:56;15.52;;;6.63;;
11681;SDS011;5897;42.640;23.310;2023-04-03T05:36:24;17.08;;;6.53;;
11681;SDS011;5897;42.640;23.310;2023-04-03T05:38:51;11.90;;;6.25;;
11681;SDS011;5897;42.640;23.310;2023-04-03T05:41:18;12.68;;;5.55;;
11681;SDS011;5897;42.640;23.310;2023-04-03T05:43:45;13.27;;;5.10;;
11681;SDS011;5897;42.640;23.310;2023-04-03T05:46:13;11.60;;;5.72;;
11681;SDS011;5897;42.640;23.310;2023-04-03T05:48:41;9.38;;;5.28;;
11681;SDS011;5897;42.640;23.310;2023-04-03T05:51:13;11.43;;;5.32;;
11681;SDS011;5897;42.640;23.310;2023-04-03T05:53:41;11.32;;;5.68;;
11681;SDS011;5897;42.640;23.310;2023-04-03T05:56:10;8.77;;;5.18;;
11681;SDS011;5897;42.640;23.310;2023-04-03T05:58:37;9.48;;;4.78;;
11681;SDS011;5897;42.640;23.310;2023-04-03T06:01:04;6.50;;;4.75;;
11681;SDS011;5897;42.640;23.310;2023-04-03T06:03:31;6.20;;;4.20;;
11681;SDS011;5897;42.640;23.310;2023-04-03T06:05:58;7.82;;;4.88;;
11681;SDS011;5897;42.640;23.310;2023-04-03T06:08:26;8.93;;;5.03;;
11681;SDS011;5897;42.640;23.310;2023-04-03T06:10:53;14.32;;;5.38;;
11681;SDS011;5897;42.640;23.310;2023-04-03T06:13:20;9.70;;;5.22;;
11681;SDS011;5897;42.640;23.310;2023-04-03T06:15:47;14.20;;;6.35;;
11681;SDS011;5897;42.640;23.310;2023-04-03T06:18:14;11.18;;;6.25;;
11681;SDS011;5897;42.640;23.310;2023-04-03T06:20:40;18.13;;;6.90;;
11681;SDS011;5897;42.640;23.310;2023-04-03T06:23:07;15.07;;;6.40;;
11681;SDS011;5897;42.640;23.310;2023-04-03T06:25:36;11.95;;;6.43;;
11681;SDS011;5897;42.640;23.310;2023-04-03T06:28:03;16.27;;;6.55;;
11681;SDS011;5897;42.640;23.310;2023-04-03T06:30:30;14.13;;;6.50;;
11681;SDS011;5897;42.640;23.310;2023-04-03T06:32:57;17.77;;;6.75;;
11681;SDS011;5897;42.640;23.310;2023-04-03T06:35:24;10.48;;;6.43;;
11681;SDS011;5897;42.640;23.310;2023-04-03T06:37:52;12.88;;;6.35;;
11681;SDS011;5897;42.640;23.310;2023-04-03T06:40:19;20.55;;;7.20;;
11681;SDS011;5897;42.640;23.310;2023-04-03T06:42:50;12.85;;;7.00;;
11681;SDS011;5897;42.640;23.310;2023-04-03T06:45:17;11.02;;;7.10;;
11681;SDS011;5897;42.640;23.310;2023-04-03T06:47:44;10.35;;;6.35;;
11681;SDS011;5897;42.640;23.310;2023-04-03T06:50:11;12.65;;;6.63;;
11681;SDS011;5897;42.640;23.310;2023-04-03T06:52:39;15.23;;;8.10;;
11681;SDS011;5897;42.640;23.310;2023-04-03T06:55:07;14.85;;;8.45;;
11681;SDS011;5897;42.640;23.310;2023-04-03T06:57:34;17.10;;;7.13;;
11681;SDS011;5897;42.640;23.310;2023-04-03T07:00:03;15.02;;;9.30;;
11681;SDS011;5897;42.640;23.310;2023-04-03T07:02:32;14.30;;;8.30;;
11681;SDS011;5897;42.640;23.310;2023-04-03T07:04:59;15.77;;;7.60;;
11681;SDS011;5897;42.640;23.310;2023-04-03T07:07:25;13.73;;;7.25;;
11681;SDS011;5897;42.640;23.310;2023-04-03T07:09:53;9.80;;;6.85;;
11681;SDS011;5897;42.640;23.310;2023-04-03T07:12:19;9.63;;;5.85;;
11681;SDS011;5897;42.640;23.310;2023-04-03T07:14:46;9.50;;;5.65;;
11681;SDS011;5897;42.640;23.310;2023-04-03T07:17:14;6.43;;;5.53;;
11681;SDS011;5897;42.640;23.310;2023-04-03T07:19:41;9.07;;;5.50;;
11681;SDS011;5897;42.640;23.310;2023-04-03T07:22:08;10.25;;;6.43;;
11681;SDS011;5897;42.640;23.310;2023-04-03T07:24:36;9.70;;;6.00;;
11681;SDS011;5897;42.640;23.310;2023-04-03T07:27:03;9.45;;;6.25;;
11681;SDS011;5897;42.640;23.310;2023-04-03T07:29:30;11.80;;;6.50;;
11681;SDS011;5897;42.640;23.310;2023-04-03T07:31:57;12.40;;;6.50;;
11681;SDS011;5897;42.640;23.310;2023-04-03T07:34:25;9.43;;;6.30;;
11681;SDS011;5897;42.640;23.310;2023-04-03T07:36:52;11.30;;;6.70;;
11681;SDS011;5897;42.640;23.310;2023-04-03T07:39:19;15.50;;;7.47;;
11681;SDS011;5897;42.640;23.310;2023-04-03T07:41:49;14.07;;;8.63;;
11681;SDS011;5897;42.640;23.310;2023-04-03T07:44:16;14.43;;;8.82;;
11681;SDS011;5897;42.640;23.310;2023-04-03T07:46:46;10.50;;;8.45;;
11681;SDS011;5897;42.640;23.310;2023-04-03T07:49:13;15.45;;;8.27;;
11681;SDS011;5897;42.640;23.310;2023-04-03T07:51:42;12.10;;;7.47;;
11681;SDS011;5897;42.640;23.310;2023-04-03T07:54:09;13.07;;;8.02;;
11681;SDS011;5897;42.640;23.310;2023-04-03T07:56:36;11.75;;;7.40;;
11681;SDS011;5897;42.640;23.310;2023-04-03T07:59:02;10.95;;;6.97;;
11681;SDS011;5897;42.640;23.310;2023-04-03T08:01:29;12.70;;;6.50;;
11681;SDS011;5897;42.640;23.310;2023-04-03T08:03:58;10.20;;;6.35;;
11681;SDS011;5897;42.640;23.310;2023-04-03T08:06:25;9.13;;;6.32;;
11681;SDS011;5897;42.640;23.310;2023-04-03T08:08:55;12.25;;;6.40;;
11681;SDS011;5897;42.640;23.310;2023-04-03T08:11:22;15.25;;;6.93;;
11681;SDS011;5897;42.640;23.310;2023-04-03T08:13:51;15.57;;;7.03;;
11681;SDS011;5897;42.640;23.310;2023-04-03T08:16:21;9.27;;;6.40;;
11681;SDS011;5897;42.640;23.310;2023-04-03T08:18:50;9.05;;;6.25;;
11681;SDS011;5897;42.640;23.310;2023-04-03T08:21:17;9.68;;;6.15;;
11681;SDS011;5897;42.640;23.310;2023-04-03T08:23:44;11.50;;;5.80;;
11681;SDS011;5897;42.640;23.310;2023-04-03T08:26:16;9.55;;;6.03;;
11681;SDS011;5897;42.640;23.310;2023-04-03T08:28:45;11.05;;;5.93;;
11681;SDS011;5897;42.640;23.310;2023-04-03T08:31:13;15.75;;;6.40;;
11681;SDS011;5897;42.640;23.310;2023-04-03T08:33:42;12.68;;;6.82;;
11681;SDS011;5897;42.640;23.310;2023-04-03T08:36:15;12.85;;;7.28;;
11681;SDS011;5897;42.640;23.310;2023-04-03T08:38:44;14.68;;;7.40;;
11681;SDS011;5897;42.640;23.310;2023-04-03T08:41:13;13.27;;;7.43;;
11681;SDS011;5897;42.640;23.310;2023-04-03T08:43:51;13.38;;;8.23;;
11681;SDS011;5897;42.640;23.310;2023-04-03T08:46:23;12.80;;;8.90;;
11681;SDS011;5897;42.640;23.310;2023-04-03T08:48:59;10.65;;;7.05;;
11681;SDS011;5897;42.640;23.310;2023-04-03T08:51:26;12.95;;;8.23;;
11681;SDS011;5897;42.640;23.310;2023-04-03T08:53:56;16.70;;;8.02;;
11681;SDS011;5897;42.640;23.310;2023-04-03T08:56:30;15.38;;;7.97;;
11681;SDS011;5897;42.640;23.310;2023-04-03T08:59:00;12.82;;;7.10;;
11681;SDS011;5897;42.640;23.310;2023-04-03T09:01:33;11.10;;;7.13;;
11681;SDS011;5897;42.640;23.310;2023-04-03T09:04:02;16.60;;;7.07;;
11681;SDS011;5897;42.640;23.310;2023-04-03T09:06:36;17.38;;;8.77;;
11681;SDS011;5897;42.640;23.310;2023-04-03T09:09:09;16.92;;;8.02;;
11681;SDS011;5897;42.640;23.310;2023-04-03T09:11:44;12.65;;;6.63;;
11681;SDS011;5897;42.640;23.310;2023-04-03T09:14:16;16.35;;;6.57;;
11681;SDS011;5897;42.640;23.310;2023-04-03T09:16:49;15.30;;;6.57;;
11681;SDS011;5897;42.640;23.310;2023-04-03T09:19:21;20.48;;;6.85;;
11681;SDS011;5897;42.640;23.310;2023-04-03T09:21:58;7.95;;;5.65;;
11681;SDS011;5897;42.640;23.310;2023-04-03T09:24:33;10.73;;;2.90;;
11681;SDS011;5897;42.640;23.310;2023-04-03T09:27:03;6.15;;;2.60;;
11681;SDS011;5897;42.640;23.310;2023-04-03T09:29:33;2.90;;;2.20;;
11681;SDS011;5897;42.640;23.310;2023-04-03T09:32:11;3.65;;;1.80;;
11681;SDS011;5897;42.640;23.310;2023-04-03T09:34:45;1.23;;;1.00;;
11681;SDS011;5897;42.640;23.310;2023-04-03T09:37:32;1.27;;;1.17;;
11681;SDS011;5897;42.640;23.310;2023-04-03T09:40:02;5.28;;;4.88;;
11681;SDS011;5897;42.640;23.310;2023-04-03T09:42:32;4.53;;;2.33;;
11681;SDS011;5897;42.640;23.310;2023-04-03T09:44:59;2.60;;;1.50;;
11681;SDS011;5897;42.640;23.310;2023-04-03T09:47:28;4.07;;;2.70;;
11681;SDS011;5897;42.640;23.310;2023-04-03T09:50:09;4.10;;;1.90;;
11681;SDS011;5897;42.640;23.310;2023-04-03T09:52:45;2.70;;;1.48;;
11681;SDS011;5897;42.640;23.310;2023-04-03T09:55:13;3.72;;;1.85;;
11681;SDS011;5897;42.640;23.310;2023-04-03T09:57:43;3.22;;;2.33;;
11681;SDS011;5897;42.640;23.310;2023-04-03T10:00:20;3.67;;;1.63;;
11681;SDS011;5897;42.640;23.310;2023-04-03T10:02:49;2.45;;;1.70;;
11681;SDS011;5897;42.640;23.310;2023-04-03T10:05:29;13.93;;;12.00;;
11681;SDS011;5897;42.640;23.310;2023-04-03T10:08:09;4.15;;;1.50;;
11681;SDS011;5897;42.640;23.310;2023-04-03T10:10:46;3.28;;;1.30;;
11681;SDS011;5897;42.640;23.310;2023-04-03T10:13:16;6.25;;;1.40;;
11681;SDS011;5897;42.640;23.310;2023-04-03T10:15:47;3.78;;;2.20;;
11681;SDS011;5897;42.640;23.310;2023-04-03T10:18:24;2.13;;;1.30;;
11681;SDS011;5897;42.640;23.310;2023-04-03T10:20:59;5.20;;;1.45;;
11681;SDS011;5897;42.640;23.310;2023-04-03T10:23:33;1.55;;;1.45;;
11681;SDS011;5897;42.640;23.310;2023-04-03T10:26:09;4.18;;;3.33;;
11681;SDS011;5897;42.640;23.310;2023-04-03T10:28:45;3.97;;;1.60;;
11681;SDS011;5897;42.640;23.310;2023-04-03T10:31:21;2.90;;;1.60;;
11681;SDS011;5897;42.640;23.310;2023-04-03T10:33:53;4.28;;;2.40;;
11681;SDS011;5897;42.640;23.310;2023-04-03T10:36:31;4.88;;;2.45;;
11681;SDS011;5897;42.640;23.310;2023-04-03T10:39:05;4.18;;;2.80;;
11681;SDS011;5897;42.640;23.310;2023-04-03T10:41:45;4.30;;;2.03;;
11681;SDS011;5897;42.640;23.310;2023-04-03T10:44:23;3.15;;;1.40;;
11681;SDS011;5897;42.640;23.310;2023-04-03T10:47:02;3.30;;;1.70;;
11681;SDS011;5897;42.640;23.310;2023-04-03T10:49:38;1.40;;;1.10;;
11681;SDS011;5897;42.640;23.310;2023-04-03T10:52:14;2.85;;;1.70;;
11681;SDS011;5897;42.640;23.310;2023-04-03T10:54:46;2.38;;;1.38;;
11681;SDS011;5897;42.640;23.310;2023-04-03T10:57:22;1.38;;;1.23;;
11681;SDS011;5897;42.640;23.310;2023-04-03T10:59:53;2.15;;;1.63;;
11681;SDS011;5897;42.640;23.310;2023-04-03T11:02:24;1.95;;;1.80;;
11681;SDS011;5897;42.640;23.310;2023-04-03T11:04:54;4.40;;;1.85;;
11681;SDS011;5897;42.640;23.310;2023-04-03T11:07:23;3.13;;;1.70;;
11681;SDS011;5897;42.640;23.310;2023-04-03T11:09:54;3.00;;;1.48;;
11681;SDS011;5897;42.640;23.310;2023-04-03T11:12:27;2.00;;;1.80;;
11681;SDS011;5897;42.640;23.310;2023-04-03T11:15:04;3.05;;;1.65;;
11681;SDS011;5897;42.640;23.310;2023-04-03T11:17:33;3.67;;;2.20;;
11681;SDS011;5897;42.640;23.310;2023-04-03T11:20:06;4.65;;;3.30;;
11681;SDS011;5897;42.640;23.310;2023-04-03T11:22:42;4.77;;;2.50;;
11681;SDS011;5897;42.640;23.310;2023-04-03T11:25:14;3.63;;;2.30;;
11681;SDS011;5897;42.640;23.310;2023-04-03T11:27:46;2.85;;;2.53;;
11681;SDS011;5897;42.640;23.310;2023-04-03T11:30:18;3.05;;;2.65;;
11681;SDS011;5897;42.640;23.310;2023-04-03T11:32:51;5.72;;;2.83;;
11681;SDS011;5897;42.640;23.310;2023-04-03T11:35:34;3.38;;;3.08;;
11681;SDS011;5897;42.640;23.310;2023-04-03T11:38:01;3.67;;;2.80;;
11681;SDS011;5897;42.640;23.310;2023-04-03T11:40:32;3.75;;;3.00;;
11681;SDS011;5897;42.640;23.310;2023-04-03T11:43:04;4.43;;;3.55;;
11681;SDS011;5897;42.640;23.310;2023-04-03T11:45:40;5.82;;;3.38;;
11681;SDS011;5897;42.640;23.310;2023-04-03T12:03:33;5.85;;;3.95;;
11681;SDS011;5897;42.640;23.310;2023-04-03T12:12:27;5.20;;;3.05;;
11681;SDS011;5897;42.640;23.310;2023-04-03T12:15:06;4.50;;;2.78;;
11681;SDS011;5897;42.640;23.310;2023-04-03T12:17:50;3.63;;;2.70;;
11681;SDS011;5897;42.640;23.310;2023-04-03T12:23:24;6.47;;;2.60;;
11681;SDS011;5897;42.640;23.310;2023-04-03T12:25:59;3.47;;;2.75;;
11681;SDS011;5897;42.640;23.310;2023-04-03T12:28:31;4.35;;;2.95;;
11681;SDS011;5897;42.640;23.310;2023-04-03T12:31:04;3.90;;;3.50;;
11681;SDS011;5897;42.640;23.310;2023-04-03T12:33:36;5.72;;;5.22;;
11681;SDS011;5897;42.640;23.310;2023-04-03T12:36:13;4.35;;;3.47;;
11681;SDS011;5897;42.640;23.310;2023-04-03T12:38:54;3.22;;;2.90;;
11681;SDS011;5897;42.640;23.310;2023-04-03T12:41:42;4.30;;;3.00;;
11681;SDS011;5897;42.640;23.310;2023-04-03T12:44:25;3.33;;;2.75;;
11681;SDS011;5897;42.640;23.310;2023-04-03T12:47:06;3.90;;;2.88;;
11681;SDS011;5897;42.640;23.310;2023-04-03T12:49:47;4.15;;;3.40;;
11681;SDS011;5897;42.640;23.310;2023-04-03T12:52:19;5.80;;;2.97;;
11681;SDS011;5897;42.640;23.310;2023-04-03T12:54:58;4.82;;;3.47;;
11681;SDS011;5897;42.640;23.310;2023-04-03T12:57:29;5.53;;;3.67;;
11681;SDS011;5897;42.640;23.310;2023-04-03T12:59:57;6.28;;;3.80;;
11681;SDS011;5897;42.640;23.310;2023-04-03T13:02:26;4.68;;;3.40;;
11681;SDS011;5897;42.640;23.310;2023-04-03T13:04:57;4.70;;;2.75;;
11681;SDS011;5897;42.640;23.310;2023-04-03T13:07:27;2.78;;;2.40;;
11681;SDS011;5897;42.640;23.310;2023-04-03T13:09:59;2.92;;;2.60;;
11681;SDS011;5897;42.640;23.310;2023-04-03T13:12:28;4.70;;;2.70;;
11681;SDS011;5897;42.640;23.310;2023-04-03T13:14:56;3.40;;;3.00;;
11681;SDS011;5897;42.640;23.310;2023-04-03T13:17:24;3.78;;;2.78;;
11681;SDS011;5897;42.640;23.310;2023-04-03T13:19:52;5.28;;;3.03;;
11681;SDS011;5897;42.640;23.310;2023-04-03T13:22:28;3.92;;;3.00;;
11681;SDS011;5897;42.640;23.310;2023-04-03T13:25:04;2.88;;;2.60;;
11681;SDS011;5897;42.640;23.310;2023-04-03T13:27:35;4.35;;;2.95;;
11681;SDS011;5897;42.640;23.310;2023-04-03T13:30:03;2.85;;;2.58;;
11681;SDS011;5897;42.640;23.310;2023-04-03T13:32:31;2.50;;;2.30;;
11681;SDS011;5897;42.640;23.310;2023-04-03T13:34:59;3.58;;;2.55;;
11681;SDS011;5897;42.640;23.310;2023-04-03T13:37:30;3.05;;;2.75;;
11681;SDS011;5897;42.640;23.310;2023-04-03T13:39:59;3.63;;;3.33;;
11681;SDS011;5897;42.640;23.310;2023-04-03T13:42:30;4.65;;;3.80;;
11681;SDS011;5897;42.640;23.310;2023-04-03T13:48:05;5.45;;;4.95;;
11681;SDS011;5897;42.640;23.310;2023-04-03T13:50:49;3.38;;;3.00;;
11681;SDS011;5897;42.640;23.310;2023-04-03T13:53:19;5.78;;;4.78;;
11681;SDS011;5897;42.640;23.310;2023-04-03T13:55:54;3.20;;;2.90;;
11681;SDS011;5897;42.640;23.310;2023-04-03T13:58:23;4.00;;;2.75;;
11681;SDS011;5897;42.640;23.310;2023-04-03T14:00:53;3.10;;;2.60;;
11681;SDS011;5897;42.640;23.310;2023-04-03T14:03:22;4.30;;;3.00;;
11681;SDS011;5897;42.640;23.310;2023-04-03T14:05:51;3.22;;;2.72;;
11681;SDS011;5897;42.640;23.310;2023-04-03T14:08:20;2.90;;;2.60;;
11681;SDS011;5897;42.640;23.310;2023-04-03T14:10:47;3.20;;;2.63;;
11681;SDS011;5897;42.640;23.310;2023-04-03T14:13:15;2.50;;;2.30;;
11681;SDS011;5897;42.640;23.310;2023-04-03T14:15:46;3.03;;;2.33;;
11681;SDS011;5897;42.640;23.310;2023-04-03T14:18:15;2.55;;;2.38;;
11681;SDS011;5897;42.640;23.310;2023-04-03T14:20:43;4.55;;;4.13;;
11681;SDS011;5897;42.640;23.310;2023-04-03T14:23:11;4.30;;;3.90;;
11681;SDS011;5897;42.640;23.310;2023-04-03T14:25:39;5.85;;;3.35;;
11681;SDS011;5897;42.640;23.310;2023-04-03T14:28:12;3.55;;;3.22;;
11681;SDS011;5897;42.640;23.310;2023-04-03T14:30:42;3.15;;;2.85;;
11681;SDS011;5897;42.640;23.310;2023-04-03T14:33:10;3.35;;;2.70;;
11681;SDS011;5897;42.640;23.310;2023-04-03T14:35:40;3.08;;;2.45;;
11681;SDS011;5897;42.640;23.310;2023-04-03T14:38:12;3.80;;;3.10;;
11681;SDS011;5897;42.640;23.310;2023-04-03T14:40:54;4.35;;;3.45;;
11681;SDS011;5897;42.640;23.310;2023-04-03T14:43:21;3.95;;;2.90;;
11681;SDS011;5897;42.640;23.310;2023-04-03T14:45:48;4.30;;;3.00;;
11681;SDS011;5897;42.640;23.310;2023-04-03T14:48:17;10.02;;;8.85;;
11681;SDS011;5897;42.640;23.310;2023-04-03T14:50:46;3.22;;;2.30;;
11681;SDS011;5897;42.640;23.310;2023-04-03T14:53:13;1.60;;;1.50;;
11681;SDS011;5897;42.640;23.310;2023-04-03T14:55:41;2.75;;;1.80;;
11681;SDS011;5897;42.640;23.310;2023-04-03T14:58:16;2.38;;;1.80;;
11681;SDS011;5897;42.640;23.310;2023-04-03T15:00:44;1.90;;;1.80;;
11681;SDS011;5897;42.640;23.310;2023-04-03T15:03:12;3.45;;;2.20;;
11681;SDS011;5897;42.640;23.310;2023-04-03T15:05:41;2.67;;;2.28;;
11681;SDS011;5897;42.640;23.310;2023-04-03T15:08:13;2.50;;;2.30;;
11681;SDS011;5897;42.640;23.310;2023-04-03T15:10:45;3.80;;;2.78;;
11681;SDS011;5897;42.640;23.310;2023-04-03T15:13:12;2.53;;;2.30;;
11681;SDS011;5897;42.640;23.310;2023-04-03T15:15:41;2.97;;;2.67;;
11681;SDS011;5897;42.640;23.310;2023-04-03T15:18:10;4.30;;;3.72;;
11681;SDS011;5897;42.640;23.310;2023-04-03T15:20:42;4.53;;;2.92;;
11681;SDS011;5897;42.640;23.310;2023-04-03T15:23:11;2.85;;;2.60;;
11681;SDS011;5897;42.640;23.310;2023-04-03T15:25:40;2.65;;;2.15;;
11681;SDS011;5897;42.640;23.310;2023-04-03T15:28:08;2.25;;;2.05;;
11681;SDS011;5897;42.640;23.310;2023-04-03T15:30:40;2.50;;;2.30;;